Time;durP1;ratioP1;P1;durP2;ratioP2;P2;SDS_P1;SDS_P2;PMS_P1;PMS_P2;Temp;Humidity;BMP_temperature;BMP_pressure;BME280_temperature;BME280_humidity;BME280_pressure;Samples;Min_cycle;Max_cycle;Signal;HPM_P1;HPM_P2
2022/05/31 00:02:17;;;;;;;2.78;2.47;;;;;;;11.82;67.32;98276.44;5013654;27;104024;-73
2022/05/31 00:04:46;;;;;;;1.95;1.77;;;;;;;12.06;65.38;98284.16;5027774;27;103809;-73
2022/05/31 00:07:15;;;;;;;2.70;2.50;;;;;;;11.98;66.40;98276.88;5029552;27;103610;-73
2022/05/31 00:09:43;;;;;;;2.40;2.20;;;;;;;12.08;65.76;98280.41;5008769;27;102834;-73
2022/05/31 00:12:11;;;;;;;3.30;3.00;;;;;;;11.97;66.02;98277.81;5028596;27;103868;-73
2022/05/31 00:14:40;;;;;;;3.63;3.07;;;;;;;11.64;68.24;98275.31;5033964;27;103791;-73
2022/05/31 00:17:11;;;;;;;2.90;2.60;;;;;;;11.81;67.45;98282.72;5030560;27;103268;-73
2022/05/31 00:19:39;;;;;;;3.22;2.92;;;;;;;11.81;66.90;98282.72;5008589;27;102650;-73
2022/05/31 00:22:10;;;;;;;3.60;3.30;;;;;;;10.28;73.37;98287.22;5026944;27;104192;-73
2022/05/31 00:24:40;;;;;;;3.13;2.83;;;;;;;11.01;69.87;98276.13;5028213;27;104586;-73
2022/05/31 00:27:14;;;;;;;4.07;3.10;;;;;;;11.18;70.16;98277.41;5026138;27;102986;-73
2022/05/31 00:29:42;;;;;;;3.30;2.97;;;;;;;11.32;68.79;98269.19;5035867;27;102600;-73
2022/05/31 00:32:11;;;;;;;3.03;2.72;;;;;;;11.41;69.01;98274.56;5008931;27;102748;-73
2022/05/31 00:34:44;;;;;;;4.50;3.95;;;;;;;10.72;72.85;98265.25;5027405;27;104048;-73
2022/05/31 00:37:13;;;;;;;2.90;2.60;;;;;;;10.85;71.88;98276.53;5009928;27;103191;-73
2022/05/31 00:39:42;;;;;;;3.58;3.28;;;;;;;10.56;72.14;98266.59;5028193;27;102939;-73
2022/05/31 00:42:13;;;;;;;4.57;3.58;;;;;;;10.74;71.81;98271.28;5033992;27;102960;-73
2022/05/31 00:44:41;;;;;;;2.65;2.38;;;;;;;11.12;70.52;98272.63;5012569;27;104267;-73
2022/05/31 00:47:15;;;;;;;3.15;2.70;;;;;;;11.06;71.05;98264.22;5011115;27;104436;-73
2022/05/31 00:49:45;;;;;;;3.50;3.20;;;;;;;11.09;70.54;98262.31;5031769;27;102637;-73
2022/05/31 00:52:22;;;;;;;3.03;2.60;;;;;;;11.18;70.41;98251.81;5032465;27;103451;-73
2022/05/31 00:55:00;;;;;;;4.10;3.37;;;;;;;11.22;70.04;98263.00;5022517;27;104441;-73
2022/05/31 00:57:29;;;;;;;3.08;2.78;;;;;;;11.33;69.26;98261.16;5013931;28;104368;-73
2022/05/31 01:00:03;;;;;;;2.47;2.28;;;;;;;11.29;69.39;98259.72;5019283;27;102783;-73
2022/05/31 01:02:31;;;;;;;3.67;3.03;;;;;;;11.04;70.39;98260.88;5022728;27;103972;-73
2022/05/31 01:05:02;;;;;;;2.20;2.05;;;;;;;11.27;69.59;98266.09;5014713;27;104311;-73
2022/05/31 01:07:32;;;;;;;3.37;3.07;;;;;;;11.10;69.49;98263.97;5024957;27;103306;-73
2022/05/31 01:10:03;;;;;;;3.22;2.92;;;;;;;10.79;71.15;98269.09;5021559;27;102987;-73
2022/05/31 01:12:52;;;;;;;2.58;2.38;;;;;;;10.95;71.21;98272.19;5030672;27;104055;-73
2022/05/31 01:15:38;;;;;;;3.00;2.70;;;;;;;10.86;71.23;98272.09;5032851;27;103118;-73
2022/05/31 01:18:45;;;;;;;3.05;2.75;;;;;;;10.86;71.05;98267.63;5007588;28;103195;-73
2022/05/31 01:21:32;;;;;;;3.10;2.80;;;;;;;10.50;72.44;98272.38;5004501;28;103923;-73
2022/05/31 01:24:19;;;;;;;2.90;2.70;;;;;;;10.76;70.76;98269.34;5033382;27;104338;-73
2022/05/31 01:26:54;;;;;;;2.58;2.38;;;;;;;10.63;71.80;98271.28;5019133;27;104227;-73
2022/05/31 01:29:24;;;;;;;2.17;1.97;;;;;;;10.92;69.98;98275.06;5031071;27;103433;-73
2022/05/31 01:31:57;;;;;;;2.60;2.30;;;;;;;11.12;69.83;98283.19;5013852;27;103230;-73
2022/05/31 01:34:34;;;;;;;3.00;2.72;;;;;;;10.73;71.76;98272.22;5030831;27;103784;-73
2022/05/31 01:37:06;;;;;;;3.17;2.88;;;;;;;10.92;70.11;98269.78;5011723;27;104154;-73
2022/05/31 01:39:39;;;;;;;4.40;3.03;;;;;;;10.83;70.75;98264.41;5018432;27;104102;-73
2022/05/31 01:42:13;;;;;;;3.35;3.05;;;;;;;10.27;73.45;98266.25;5015325;27;102701;-72
2022/05/31 01:44:48;;;;;;;3.90;3.60;;;;;;;9.54;76.77;98265.72;5032274;27;104044;-72
2022/05/31 01:47:16;;;;;;;3.70;3.40;;;;;;;9.84;74.32;98261.59;5013746;27;104205;-73
2022/05/31 01:49:49;;;;;;;4.00;2.90;;;;;;;10.01;75.13;98262.09;5031781;27;103235;-73
2022/05/31 01:52:20;;;;;;;3.30;2.90;;;;;;;10.27;73.85;98264.41;5021357;27;102882;-72
2022/05/31 01:54:48;;;;;;;2.65;2.42;;;;;;;10.59;71.43;98267.19;5018641;27;104359;-73
2022/05/31 01:57:18;;;;;;;3.10;2.83;;;;;;;10.49;72.33;98263.59;5014691;27;104396;-73
2022/05/31 01:59:53;;;;;;;2.40;2.20;;;;;;;10.67;71.41;98261.28;5025142;27;102751;-73
2022/05/31 02:02:22;;;;;;;2.40;2.20;;;;;;;10.77;70.56;98263.09;5025218;27;103051;-73
2022/05/31 02:04:50;;;;;;;1.80;1.70;;;;;;;10.90;69.41;98271.72;5027271;27;102548;-72
2022/05/31 02:07:20;;;;;;;2.10;2.00;;;;;;;10.90;69.89;98265.59;5050499;27;103333;-73
2022/05/31 02:09:51;;;;;;;3.50;3.20;;;;;;;9.88;74.46;98267.47;5035288;27;103135;-72
2022/05/31 02:12:30;;;;;;;4.33;3.37;;;;;;;10.18;74.10;98265.16;5012944;27;102620;-73
2022/05/31 02:15:19;;;;;;;3.88;3.58;;;;;;;9.51;76.80;98269.41;5029216;27;105042;-72
2022/05/31 02:18:07;;;;;;;2.97;2.78;;;;;;;10.08;74.84;98266.78;5023858;27;103577;-73
2022/05/31 02:20:58;;;;;;;2.08;1.90;;;;;;;10.54;71.70;98269.34;5032585;27;104281;-73
2022/05/31 02:23:27;;;;;;;3.35;2.80;;;;;;;10.39;72.45;98267.91;5012719;27;102630;-72
2022/05/31 02:25:55;;;;;;;2.83;2.63;;;;;;;10.56;72.27;98270.06;5014853;27;104165;-72
2022/05/31 02:28:24;;;;;;;3.47;3.10;;;;;;;10.42;72.43;98267.66;5016155;27;106215;-72
2022/05/31 02:30:55;;;;;;;3.25;2.95;;;;;;;9.89;74.93;98259.44;5034513;27;103169;-73
2022/05/31 02:33:23;;;;;;;2.92;2.63;;;;;;;10.12;74.74;98267.38;5011492;27;103131;-72
2022/05/31 02:35:51;;;;;;;2.20;2.00;;;;;;;10.47;72.85;98265.50;5029483;27;103665;-72
2022/05/31 02:38:20;;;;;;;2.97;2.67;;;;;;;10.64;71.22;98259.72;5023875;27;103976;-73
2022/05/31 02:40:49;;;;;;;3.17;2.88;;;;;;;10.41;72.94;98258.91;5016309;27;105174;-73
2022/05/31 02:43:17;;;;;;;2.03;1.83;;;;;;;10.58;71.39;98257.59;5030560;27;102604;-73
2022/05/31 02:45:45;;;;;;;2.13;1.93;;;;;;;10.74;70.52;98263.34;5013112;27;102919;-73
2022/05/31 02:48:14;;;;;;;2.55;2.30;;;;;;;10.81;70.36;98264.50;5011626;27;105816;-73
2022/05/31 02:50:42;;;;;;;2.63;2.25;;;;;;;10.84;69.70;98259.00;5016773;27;102782;-73
2022/05/31 02:53:10;;;;;;;3.20;2.90;;;;;;;10.84;70.07;98260.78;5010803;27;102786;-73
2022/05/31 02:55:38;;;;;;;2.72;2.53;;;;;;;10.81;70.13;98269.81;5024859;27;104308;-73
2022/05/31 02:58:28;;;;;;;2.67;2.47;;;;;;;10.78;70.26;98269.22;5003743;27;104564;-73
2022/05/31 03:01:24;;;;;;;3.38;2.65;;;;;;;10.83;69.33;98273.19;5034097;27;103298;-73
2022/05/31 03:04:19;;;;;;;2.88;2.58;;;;;;;10.92;68.95;98269.78;5031381;27;103169;-73
2022/05/31 03:07:25;;;;;;;3.42;3.15;;;;;;;10.84;69.99;98266.06;4957412;28;102741;-72
2022/05/31 03:10:19;;;;;;;3.13;2.33;;;;;;;10.87;69.46;98264.03;4954956;28;103299;-73
2022/05/31 03:12:49;;;;;;;2.40;2.20;;;;;;;10.92;68.89;98268.94;5002437;27;102616;-73
2022/05/31 03:15:20;;;;;;;3.28;2.88;;;;;;;10.89;68.71;98266.56;5034700;27;103155;-72
2022/05/31 03:17:54;;;;;;;3.63;3.00;;;;;;;10.71;69.93;98266.22;5017604;27;103449;-72
2022/05/31 03:20:27;;;;;;;2.95;2.70;;;;;;;10.54;71.70;98266.72;5030631;27;103012;-73
2022/05/31 03:22:58;;;;;;;3.57;3.27;;;;;;;10.58;70.32;98269.97;5033415;27;102614;-72
2022/05/31 03:25:28;;;;;;;3.58;3.10;;;;;;;10.54;71.47;98272.00;5028404;27;102692;-72
2022/05/31 03:28:01;;;;;;;2.80;2.60;;;;;;;10.45;71.15;98272.72;5028182;27;103581;-73
2022/05/31 03:30:33;;;;;;;4.38;3.13;;;;;;;10.51;71.33;98272.25;5013493;27;104385;-73
2022/05/31 03:33:02;;;;;;;2.60;2.40;;;;;;;10.65;70.41;98268.50;5015410;27;104489;-74
2022/05/31 03:35:30;;;;;;;2.13;1.90;;;;;;;10.77;69.33;98262.25;5031782;27;102586;-74
2022/05/31 03:38:02;;;;;;;3.07;2.80;;;;;;;10.76;69.74;98277.25;5022438;27;103717;-74
2022/05/31 03:43:30;;;;;;;3.17;2.65;;;;;;;10.64;70.71;98270.31;5023095;27;105895;-72
2022/05/31 03:46:20;;;;;;;3.60;2.90;;;;;;;10.20;72.62;98278.22;5021867;27;102807;-72
2022/05/31 03:48:58;;;;;;;4.00;3.60;;;;;;;9.66;75.15;98277.94;5032904;27;103645;-72
2022/05/31 03:51:31;;;;;;;3.90;3.47;;;;;;;9.81;76.09;98276.81;5012047;27;105259;-75
2022/05/31 03:54:07;;;;;;;2.15;2.05;;;;;;;10.47;72.75;98276.91;5033687;27;102590;-75
2022/05/31 03:57:12;;;;;;;3.05;2.63;;;;;;;10.81;70.88;98269.81;5005000;27;103012;-72
2022/05/31 03:59:44;;;;;;;3.00;2.70;;;;;;;10.94;70.60;98264.38;5012069;27;104001;-72
2022/05/31 04:02:14;;;;;;;4.15;3.75;;;;;;;10.79;70.36;98265.59;5010730;27;106159;-72
2022/05/31 04:04:43;;;;;;;5.00;4.50;;;;;;;10.52;72.48;98268.66;5025110;27;103044;-72
2022/05/31 04:07:11;;;;;;;4.15;3.75;;;;;;;10.62;72.19;98264.31;5022108;27;103834;-73
2022/05/31 04:09:39;;;;;;;4.05;3.75;;;;;;;9.97;76.62;98272.03;5008954;27;104660;-72
2022/05/31 04:12:10;;;;;;;2.63;2.42;;;;;;;10.48;74.90;98262.75;5018539;27;105379;-72
2022/05/31 04:15:14;;;;;;;2.58;2.38;;;;;;;10.83;72.24;98262.63;5014259;27;104141;-72
2022/05/31 04:17:43;;;;;;;2.72;2.40;;;;;;;10.97;71.94;98264.16;5019528;27;102672;-72
2022/05/31 04:20:12;;;;;;;2.78;2.58;;;;;;;11.02;71.29;98265.47;5022926;27;103554;-73
2022/05/31 04:22:41;;;;;;;3.03;2.80;;;;;;;11.05;71.05;98262.56;5018782;27;104202;-72
2022/05/31 04:25:37;;;;;;;3.13;2.80;;;;;;;11.11;70.59;98261.22;5018481;27;103402;-72
2022/05/31 04:28:43;;;;;;;2.83;2.55;;;;;;;11.14;70.95;98265.41;5022489;27;104695;-72
2022/05/31 04:31:32;;;;;;;3.53;3.13;;;;;;;10.94;72.16;98265.25;5011100;27;103676;-72
2022/05/31 04:34:21;;;;;;;4.88;3.75;;;;;;;10.59;74.11;98259.25;5019057;27;104075;-72
2022/05/31 04:36:49;;;;;;;3.97;3.60;;;;;;;10.42;74.68;98257.09;5006008;27;104586;-72
2022/05/31 04:39:23;;;;;;;4.82;4.00;;;;;;;10.02;77.34;98258.50;5010976;27;104622;-72
2022/05/31 04:41:56;;;;;;;3.90;3.47;;;;;;;10.42;75.57;98247.38;5010492;27;104542;-72
2022/05/31 04:44:24;;;;;;;4.68;3.60;;;;;;;10.47;75.51;98244.38;5009696;27;102692;-72
2022/05/31 04:46:53;;;;;;;4.53;3.80;;;;;;;10.52;74.57;98241.38;5009710;27;103139;-72
2022/05/31 04:49:36;;;;;;;4.30;3.70;;;;;;;10.74;74.29;98244.84;5011118;27;102646;-72
2022/05/31 04:52:05;;;;;;;5.60;4.18;;;;;;;10.14;76.76;98249.66;5008461;27;103454;-72
2022/05/31 04:54:40;;;;;;;3.90;3.60;;;;;;;10.32;77.25;98257.00;5010168;27;103435;-72
2022/05/31 04:57:12;;;;;;;3.30;3.03;;;;;;;10.76;74.35;98252.63;5015780;27;103381;-73
2022/05/31 04:59:42;;;;;;;3.60;3.15;;;;;;;11.08;72.39;98245.63;5016228;27;104179;-73
2022/05/31 05:02:10;;;;;;;4.18;3.72;;;;;;;10.90;73.30;98245.28;5008283;27;104131;-72
2022/05/31 05:04:53;;;;;;;4.50;3.83;;;;;;;10.78;72.79;98254.19;5014975;27;103758;-72
2022/05/31 05:07:40;;;;;;;4.32;3.90;;;;;;;10.67;74.12;98251.56;5014352;27;104178;-72
2022/05/31 05:10:10;;;;;;;3.33;2.93;;;;;;;11.26;71.75;98249.38;5011678;27;102957;-72
2022/05/31 05:13:02;;;;;;;2.60;2.40;;;;;;;11.70;70.05;98252.84;5012643;27;102673;-72
2022/05/31 05:16:00;;;;;;;3.85;3.00;;;;;;;11.90;69.77;98254.66;4968531;27;103286;-73
2022/05/31 05:18:35;;;;;;;3.30;3.00;;;;;;;12.10;69.73;98251.13;5010534;27;103960;-72
2022/05/31 05:21:07;;;;;;;3.10;2.80;;;;;;;12.27;69.17;98244.41;5016812;27;102693;-72
2022/05/31 05:23:37;;;;;;;5.30;4.05;;;;;;;11.87;69.02;98244.31;5010988;27;102933;-72
2022/05/31 05:26:11;;;;;;;3.60;3.30;;;;;;;12.01;69.63;98247.44;5030424;27;103810;-72
2022/05/31 05:31:40;;;;;;;5.00;3.92;;;;;;;11.74;70.03;98233.91;5009807;27;102688;-72
2022/05/31 05:34:27;;;;;;;3.38;3.00;;;;;;;12.46;68.26;98233.91;5029088;27;103024;-72
2022/05/31 05:36:59;;;;;;;3.20;2.90;;;;;;;12.80;67.41;98240.53;4994253;27;105843;-72
2022/05/31 05:39:27;;;;;;;3.60;3.30;;;;;;;13.06;66.69;98231.13;5017684;27;103973;-72
2022/05/31 05:42:14;;;;;;;3.20;2.90;;;;;;;13.33;65.62;98239.25;5034150;27;102647;-72
2022/05/31 05:45:02;;;;;;;3.30;3.00;;;;;;;13.53;64.69;98228.69;5034294;27;102959;-72
2022/05/31 05:47:30;;;;;;;3.17;2.88;;;;;;;13.71;64.46;98229.63;5016870;27;104258;-72
2022/05/31 05:49:58;;;;;;;5.35;3.70;;;;;;;13.44;65.10;98238.31;5014275;27;106169;-72
2022/05/31 05:52:51;;;;;;;3.63;3.30;;;;;;;13.43;64.60;98235.78;5026255;27;102918;-72
2022/05/31 05:55:39;;;;;;;3.80;3.20;;;;;;;13.64;64.10;98232.00;5032349;27;102609;-72
2022/05/31 05:58:25;;;;;;;3.58;3.28;;;;;;;13.78;63.99;98233.41;5029919;27;103201;-72
2022/05/31 06:01:16;;;;;;;3.20;2.87;;;;;;;14.04;63.27;98229.13;5029636;27;103719;-72
2022/05/31 06:03:58;;;;;;;3.03;2.72;;;;;;;14.33;63.30;98224.63;5014772;27;102713;-72
2022/05/31 06:06:31;;;;;;;3.50;3.00;;;;;;;14.57;62.28;98226.75;5018271;27;104192;-72
2022/05/31 06:09:04;;;;;;;3.67;3.00;;;;;;;14.76;62.78;98233.81;5030505;27;104186;-72
2022/05/31 06:11:46;;;;;;;3.90;3.60;;;;;;;14.82;62.37;98230.56;5030954;27;103180;-73
2022/05/31 06:14:18;;;;;;;3.90;3.23;;;;;;;14.86;62.26;98232.75;5015362;27;104055;-72
2022/05/31 06:16:48;;;;;;;3.78;3.38;;;;;;;14.94;62.64;98232.00;5016424;27;104036;-72
2022/05/31 06:19:19;;;;;;;4.35;3.50;;;;;;;14.83;62.08;98233.06;5038986;27;103307;-72
2022/05/31 06:21:50;;;;;;;3.88;3.47;;;;;;;14.34;63.17;98236.91;5035883;27;103177;-73
2022/05/31 06:24:29;;;;;;;4.68;3.83;;;;;;;14.12;64.03;98231.09;5024398;27;102700;-73
2022/05/31 06:27:06;;;;;;;4.00;3.60;;;;;;;14.23;63.19;98229.06;5015061;27;104212;-72
2022/05/31 06:29:34;;;;;;;3.83;3.53;;;;;;;14.42;63.22;98234.38;5012863;27;105893;-73
2022/05/31 06:32:02;;;;;;;4.33;3.80;;;;;;;14.22;65.30;98232.72;5020979;27;104410;-72
2022/05/31 06:34:39;;;;;;;3.33;3.03;;;;;;;14.92;64.05;98224.19;5015290;27;103854;-72
2022/05/31 06:37:42;;;;;;;3.63;3.13;;;;;;;15.73;62.89;98237.47;5016867;27;104611;-72
2022/05/31 06:40:13;;;;;;;3.90;3.55;;;;;;;15.43;61.24;98238.69;5009148;27;103268;-72
2022/05/31 06:42:59;;;;;;;4.88;3.80;;;;;;;15.76;60.28;98223.84;5012431;27;104134;-73
2022/05/31 06:45:46;;;;;;;3.67;3.37;;;;;;;16.20;59.30;98230.81;5026200;27;102971;-72
2022/05/31 06:48:33;;;;;;;7.00;4.38;;;;;;;14.88;62.64;98229.94;5028819;27;103960;-72
2022/05/31 06:56:48;;;;;;;4.73;3.80;;;;;;;15.03;62.03;98228.47;5020779;27;104722;-73
2022/05/31 06:57:42;;;;;;;4.20;3.80;;;;;;;16.33;58.20;98231.25;5024519;27;102647;-72
2022/05/31 07:00:29;;;;;;;3.80;3.45;;;;;;;16.72;58.13;98226.31;5009154;27;102712;-72
2022/05/31 07:02:59;;;;;;;4.07;3.67;;;;;;;16.64;57.45;98224.44;5019512;27;103547;-73
2022/05/31 07:05:40;;;;;;;5.55;4.10;;;;;;;17.11;56.26;98215.91;5030037;27;103188;-73
2022/05/31 07:08:14;;;;;;;5.13;4.53;;;;;;;15.87;58.45;98236.91;5010266;27;102792;-70
2022/05/31 07:11:01;;;;;;;4.50;3.47;;;;;;;16.86;56.08;98223.03;5030254;27;102648;-70
2022/05/31 07:13:49;;;;;;;5.35;4.00;;;;;;;17.06;56.25;98218.25;5029842;27;103932;-70
2022/05/31 07:16:26;;;;;;;5.13;3.95;;;;;;;17.41;56.28;98217.97;5029495;27;103270;-73
2022/05/31 07:18:54;;;;;;;7.22;4.70;;;;;;;17.24;56.00;98209.09;5027708;27;102690;-70
2022/05/31 07:21:26;;;;;;;7.43;4.60;;;;;;;17.73;53.91;98202.00;5011301;27;102662;-70
2022/05/31 07:23:55;;;;;;;6.45;4.70;;;;;;;17.47;55.01;98205.78;5002992;27;103983;-71
2022/05/31 07:26:24;;;;;;;7.43;5.30;;;;;;;17.33;56.02;98209.94;5011176;27;105709;-70
2022/05/31 07:29:10;;;;;;;7.40;5.05;;;;;;;17.45;54.08;98203.28;5013933;27;102792;-71
2022/05/31 07:31:41;;;;;;;5.13;4.63;;;;;;;18.25;53.03;98199.75;5022183;27;103955;-71
2022/05/31 07:34:31;;;;;;;8.55;4.45;;;;;;;18.68;51.88;98192.28;5009358;27;103224;-71
2022/05/31 07:37:00;;;;;;;5.43;4.68;;;;;;;18.35;51.81;98192.38;5000314;27;104143;-71
2022/05/31 07:39:30;;;;;;;7.03;4.10;;;;;;;19.26;49.89;98197.16;5011231;27;102768;-71
2022/05/31 07:41:59;;;;;;;5.53;4.07;;;;;;;19.32;49.84;98199.97;5010130;27;103788;-71
2022/05/31 07:44:29;;;;;;;4.97;3.47;;;;;;;19.10;49.92;98193.56;5010549;27;104221;-71
2022/05/31 07:47:00;;;;;;;5.47;3.58;;;;;;;19.62;49.10;98198.28;5027277;27;103398;-71
2022/05/31 07:49:30;;;;;;;4.25;3.85;;;;;;;19.40;50.29;98194.56;5010324;27;102720;-71
2022/05/31 07:52:18;;;;;;;6.78;4.13;;;;;;;19.31;49.55;98200.16;5011840;27;103969;-71
2022/05/31 07:55:04;;;;;;;5.70;3.97;;;;;;;19.72;47.72;98204.22;5005788;27;103079;-71
2022/05/31 08:00:57;;;;;;;5.63;3.60;;;;;;;20.76;47.06;98199.66;5018503;27;103026;-72
2022/05/31 08:03:25;;;;;;;6.05;3.40;;;;;;;20.91;47.62;98193.41;5006797;27;104222;-73
2022/05/31 08:05:53;;;;;;;4.82;3.38;;;;;;;21.47;47.34;98197.19;5024004;27;103261;-72
2022/05/31 08:08:25;;;;;;;3.23;2.63;;;;;;;21.84;46.15;98196.88;5022111;27;103253;-72
2022/05/31 08:11:04;;;;;;;5.22;2.60;;;;;;;21.02;46.42;98193.78;5021016;27;102615;-73
2022/05/31 08:13:32;;;;;;;3.60;2.08;;;;;;;21.38;44.42;98191.94;5012461;27;103127;-73
2022/05/31 08:16:03;;;;;;;3.38;2.30;;;;;;;22.67;43.08;98174.56;5012905;27;104023;-73
2022/05/31 08:18:31;;;;;;;3.95;2.50;;;;;;;21.89;44.62;98175.69;5020634;27;103302;-73
2022/05/31 08:21:00;;;;;;;3.38;2.30;;;;;;;22.43;43.16;98171.28;5003451;27;102777;-73
2022/05/31 08:23:29;;;;;;;4.87;2.10;;;;;;;23.43;43.22;98163.44;5008187;27;103352;-73
2022/05/31 08:25:56;;;;;;;4.07;2.20;;;;;;;23.29;42.13;98164.44;5009070;27;104275;-72
2022/05/31 08:28:25;;;;;;;5.63;2.42;;;;;;;23.13;42.40;98164.78;5026162;27;103513;-73
2022/05/31 08:30:57;;;;;;;3.10;2.55;;;;;;;23.84;41.67;98162.44;5026886;27;102750;-72
2022/05/31 08:33:27;;;;;;;4.43;2.40;;;;;;;24.15;41.32;98154.56;5019515;27;103661;-72
2022/05/31 08:35:55;;;;;;;4.00;2.50;;;;;;;23.85;42.28;98158.72;5010043;27;104477;-72
2022/05/31 08:38:31;;;;;;;2.90;2.03;;;;;;;24.09;42.37;98147.25;5029875;27;103212;-72
2022/05/31 08:41:07;;;;;;;5.13;2.40;;;;;;;23.85;42.57;98148.75;5033792;27;103452;-72
2022/05/31 08:44:05;;;;;;;3.53;2.25;;;;;;;23.06;40.99;98148.63;5030864;27;104054;-72
2022/05/31 08:46:51;;;;;;;3.58;2.30;;;;;;;24.42;40.81;98144.56;5031166;27;104263;-73
2022/05/31 08:52:25;;;;;;;3.75;2.20;;;;;;;24.60;40.70;98153.63;5015131;27;102859;-73
2022/05/31 08:57:48;;;;;;;3.85;2.10;;;;;;;22.30;42.01;98147.00;5023926;27;105160;-73
2022/05/31 09:00:20;;;;;;;2.83;1.55;;;;;;;23.82;40.93;98159.13;5035991;27;103183;-73
2022/05/31 09:02:53;;;;;;;2.72;1.92;;;;;;;23.64;41.35;98146.25;5018757;27;103489;-72
2022/05/31 09:05:28;;;;;;;3.50;1.80;;;;;;;24.43;40.30;98155.13;5027065;27;103779;-73
2022/05/31 09:08:01;;;;;;;4.75;1.70;;;;;;;24.47;41.22;98153.69;5024283;27;104172;-73
2022/05/31 09:10:37;;;;;;;2.78;1.73;;;;;;;24.11;40.91;98156.03;5023980;27;103453;-73
2022/05/31 09:13:15;;;;;;;3.55;1.80;;;;;;;24.39;39.67;98151.22;5005321;27;102854;-73
2022/05/31 09:15:50;;;;;;;4.70;1.67;;;;;;;24.20;40.70;98157.47;5018439;27;102871;-73
2022/05/31 09:18:23;;;;;;;3.70;1.70;;;;;;;21.64;42.41;98167.16;5011189;27;103035;-73
2022/05/31 09:20:56;;;;;;;3.80;1.70;;;;;;;22.17;41.86;98168.44;5004409;27;103419;-73
2022/05/31 09:23:29;;;;;;;3.88;1.50;;;;;;;21.37;43.88;98160.69;5008932;27;102977;-73
2022/05/31 09:26:10;;;;;;;4.03;1.67;;;;;;;23.18;41.30;98156.09;5018211;27;103110;-72
2022/05/31 09:28:48;;;;;;;2.53;1.48;;;;;;;25.37;40.29;98150.78;5013865;27;103729;-73
2022/05/31 09:31:28;;;;;;;2.80;1.70;;;;;;;24.88;39.10;98149.81;5021695;27;103197;-73
2022/05/31 09:34:13;;;;;;;3.55;1.83;;;;;;;24.35;39.64;98144.56;5019852;27;104420;-73
2022/05/31 09:36:48;;;;;;;4.55;1.75;;;;;;;25.12;39.87;98152.59;5022662;27;103009;-73
2022/05/31 09:39:22;;;;;;;2.80;1.52;;;;;;;24.99;39.29;98154.53;5008359;27;104288;-73
2022/05/31 09:41:59;;;;;;;2.70;1.70;;;;;;;26.40;38.35;98149.38;5024780;27;103336;-73
2022/05/31 09:44:34;;;;;;;2.28;1.52;;;;;;;25.44;38.55;98158.88;5011347;27;102710;-73
2022/05/31 09:47:10;;;;;;;3.88;2.00;;;;;;;25.78;39.74;98147.63;5007590;27;104434;-73
2022/05/31 09:49:42;;;;;;;2.90;1.70;;;;;;;23.99;40.55;98147.72;5028475;27;103264;-73
2022/05/31 09:52:16;;;;;;;2.55;1.52;;;;;;;24.77;38.82;98149.41;5033077;27;103291;-73
2022/05/31 09:58:23;;;;;;;4.43;1.80;;;;;;;24.13;36.32;98140.47;5019533;27;102679;-73
2022/05/31 10:01:25;;;;;;;2.50;1.45;;;;;;;25.67;38.11;98134.81;5030436;27;104086;-73
2022/05/31 10:04:09;;;;;;;3.95;2.95;;;;;;;26.37;36.35;98146.28;5011652;27;105236;-73
2022/05/31 10:06:53;;;;;;;5.88;4.43;;;;;;;25.87;36.48;98135.47;5029207;27;102623;-73
2022/05/31 10:09:26;;;;;;;6.13;4.28;;;;;;;25.75;36.33;98139.94;5031799;27;103914;-73
2022/05/31 10:12:05;;;;;;;3.15;1.95;;;;;;;25.09;37.62;98131.44;5036347;27;103940;-73
2022/05/31 10:14:36;;;;;;;2.53;1.60;;;;;;;25.53;37.25;98125.13;5033314;27;103168;-72
2022/05/31 10:17:21;;;;;;;3.60;2.30;;;;;;;25.94;35.85;98127.28;5026760;27;102561;-73
2022/05/31 10:20:18;;;;;;;3.40;1.85;;;;;;;25.07;39.42;98125.41;5033324;27;103806;-72
2022/05/31 10:22:51;;;;;;;4.85;1.90;;;;;;;23.27;41.64;98123.34;5026781;27;103272;-73
2022/05/31 10:25:42;;;;;;;5.03;2.20;;;;;;;24.42;39.69;98118.38;5027160;27;103202;-73
2022/05/31 10:28:40;;;;;;;3.95;1.83;;;;;;;24.96;38.08;98120.69;5027761;27;103015;-73
2022/05/31 10:31:22;;;;;;;3.75;1.90;;;;;;;23.68;40.07;98128.63;5009534;27;104627;-73
2022/05/31 10:33:55;;;;;;;3.53;2.00;;;;;;;23.71;40.93;98125.53;5019397;27;104066;-73
2022/05/31 10:36:25;;;;;;;3.50;1.80;;;;;;;25.12;39.33;98119.38;5018626;27;103260;-72
2022/05/31 10:38:53;;;;;;;2.92;2.20;;;;;;;25.11;38.08;98123.09;5021505;27;102750;-72
2022/05/31 10:41:30;;;;;;;3.20;1.75;;;;;;;25.55;37.61;98128.44;5022519;27;103082;-73
2022/05/31 10:44:26;;;;;;;2.17;1.73;;;;;;;24.48;39.18;98127.50;5022006;27;103649;-73
2022/05/31 10:47:01;;;;;;;5.00;1.90;;;;;;;23.71;39.92;98127.38;5017189;27;103199;-72
2022/05/31 10:49:32;;;;;;;2.63;1.90;;;;;;;25.02;38.81;98125.22;5003785;27;102738;-72
2022/05/31 10:52:13;;;;;;;6.03;2.08;;;;;;;25.22;37.54;98128.66;5027582;27;104049;-72
2022/05/31 10:54:55;;;;;;;5.13;1.83;;;;;;;24.00;38.74;98129.66;5022242;27;103349;-72
2022/05/31 10:57:44;;;;;;;2.63;1.83;;;;;;;23.92;40.54;98132.53;5017910;27;103442;-72
2022/05/31 11:00:20;;;;;;;5.37;2.57;;;;;;;22.99;41.46;98139.66;5021161;27;103960;-72
2022/05/31 11:03:18;;;;;;;1.80;1.65;;;;;;;24.06;39.95;98134.19;5022058;27;102765;-73
2022/05/31 11:06:00;;;;;;;4.03;1.90;;;;;;;25.25;38.06;98133.63;5020689;27;103252;-73
2022/05/31 11:11:47;;;;;;;4.95;2.00;;;;;;;24.97;36.91;98132.31;5005467;27;102789;-73
2022/05/31 11:14:38;;;;;;;4.60;1.80;;;;;;;25.09;36.49;98120.63;5022541;27;103594;-72
2022/05/31 11:17:21;;;;;;;4.57;1.77;;;;;;;26.16;34.50;98127.75;5027025;27;103345;-73
2022/05/31 11:19:57;;;;;;;2.95;1.70;;;;;;;26.31;35.50;98130.91;5007266;27;103089;-73
2022/05/31 11:22:54;;;;;;;3.60;2.13;;;;;;;25.24;36.52;98134.66;5016458;27;102923;-72
2022/05/31 11:25:38;;;;;;;3.53;1.83;;;;;;;23.55;37.99;98134.84;5024442;27;104012;-72
2022/05/31 11:28:25;;;;;;;2.47;1.60;;;;;;;22.62;39.35;98137.44;5029309;27;103892;-72
2022/05/31 11:31:10;;;;;;;6.00;2.00;;;;;;;23.86;37.80;98144.19;5012904;27;105311;-72
2022/05/31 11:33:54;;;;;;;2.33;1.50;;;;;;;24.37;35.89;98136.25;5020737;27;103110;-73
2022/05/31 11:36:31;;;;;;;3.73;1.20;;;;;;;24.83;34.27;98133.44;5022104;27;102953;-72
2022/05/31 11:39:05;;;;;;;3.55;1.60;;;;;;;25.13;33.99;98137.22;5021840;27;104164;-72
2022/05/31 11:41:41;;;;;;;2.67;1.48;;;;;;;24.75;35.70;98145.28;5024937;27;103433;-73
2022/05/31 11:44:53;;;;;;;4.85;1.65;;;;;;;24.08;36.28;98142.94;5008470;27;102751;-73
2022/05/31 11:47:38;;;;;;;5.22;1.40;;;;;;;25.24;33.97;98144.63;5019742;27;103802;-72
2022/05/31 11:50:15;;;;;;;2.60;1.13;;;;;;;24.46;34.36;98135.81;5019908;27;104054;-73
2022/05/31 11:53:03;;;;;;;2.67;1.40;;;;;;;24.74;34.67;98141.75;5023365;27;103469;-73
2022/05/31 11:55:34;;;;;;;2.75;1.52;;;;;;;25.18;35.46;98140.13;5022114;27;102879;-73
2022/05/31 11:58:27;;;;;;;2.60;1.50;;;;;;;25.44;35.40;98148.03;5019155;27;102710;-73
2022/05/31 12:01:16;;;;;;;3.55;1.40;;;;;;;26.35;33.35;98138.38;5024877;27;103298;-71
2022/05/31 12:04:03;;;;;;;4.63;1.50;;;;;;;26.32;32.71;98140.72;5021909;27;103214;-71
2022/05/31 12:06:39;;;;;;;2.00;1.30;;;;;;;25.24;33.39;98139.22;5007166;27;102903;-70
2022/05/31 12:09:17;;;;;;;3.53;1.35;;;;;;;24.97;32.45;98137.72;5019941;27;104211;-71
2022/05/31 12:11:52;;;;;;;2.03;1.13;;;;;;;25.41;32.78;98129.56;4989677;27;103134;-71
2022/05/31 12:14:22;;;;;;;2.30;1.30;;;;;;;25.54;32.86;98134.91;5002427;27;104108;-71
2022/05/31 12:16:52;;;;;;;1.75;1.20;;;;;;;26.32;32.75;98127.16;5019029;27;102933;-71
2022/05/31 12:19:32;;;;;;;2.50;1.48;;;;;;;26.33;33.00;98128.84;5027369;27;104176;-71
2022/05/31 12:22:08;;;;;;;3.60;1.45;;;;;;;25.51;34.01;98127.25;5029468;27;104219;-72
2022/05/31 12:24:41;;;;;;;3.63;1.53;;;;;;;24.73;33.91;98126.56;5021862;27;103363;-72
2022/05/31 12:27:15;;;;;;;4.00;1.60;;;;;;;23.99;35.81;98133.38;5001433;27;103191;-71
2022/05/31 12:29:50;;;;;;;4.90;1.50;;;;;;;22.88;34.85;98134.03;5017833;27;103983;-72
2022/05/31 12:32:41;;;;;;;2.80;1.42;;;;;;;23.53;35.24;98128.81;5015688;27;103327;-72
2022/05/31 12:35:12;;;;;;;5.57;2.03;;;;;;;24.77;34.19;98122.41;5018004;27;103299;-71